sensor_id;sensor_type;location;lat;lon;timestamp;P1;durP1;ratioP1;P2;durP2;ratioP2
47599;SDS011;33323;52.124;6.018;2022-08-18T00:01:11;29.20;;;22.80;;
47599;SDS011;33323;52.124;6.018;2022-08-18T00:03:41;29.45;;;20.92;;
47599;SDS011;33323;52.124;6.018;2022-08-18T00:06:25;26.95;;;20.80;;
47599;SDS011;33323;52.124;6.018;2022-08-18T00:08:55;27.67;;;19.95;;
47599;SDS011;33323;52.124;6.018;2022-08-18T00:11:29;31.38;;;20.70;;
47599;SDS011;33323;52.124;6.018;2022-08-18T00:14:08;27.73;;;20.05;;
47599;SDS011;33323;52.124;6.018;2022-08-18T00:16:47;23.35;;;19.25;;
47599;SDS011;33323;52.124;6.018;2022-08-18T00:19:16;26.70;;;19.08;;
47599;SDS011;33323;52.124;6.018;2022-08-18T00:21:43;30.63;;;19.35;;
47599;SDS011;33323;52.124;6.018;2022-08-18T00:24:10;24.08;;;18.88;;
47599;SDS011;33323;52.124;6.018;2022-08-18T00:26:37;25.58;;;18.90;;
47599;SDS011;33323;52.124;6.018;2022-08-18T00:29:06;24.50;;;18.40;;
47599;SDS011;33323;52.124;6.018;2022-08-18T00:31:33;26.65;;;19.98;;
47599;SDS011;33323;52.124;6.018;2022-08-18T00:34:00;25.75;;;19.30;;
47599;SDS011;33323;52.124;6.018;2022-08-18T00:36:27;27.08;;;19.60;;
47599;SDS011;33323;52.124;6.018;2022-08-18T00:38:57;22.67;;;18.52;;
47599;SDS011;33323;52.124;6.018;2022-08-18T00:41:24;24.58;;;19.15;;
47599;SDS011;33323;52.124;6.018;2022-08-18T00:43:52;27.00;;;19.83;;
47599;SDS011;33323;52.124;6.018;2022-08-18T00:46:26;23.27;;;18.05;;
47599;SDS011;33323;52.124;6.018;2022-08-18T00:48:58;28.02;;;20.30;;
47599;SDS011;33323;52.124;6.018;2022-08-18T00:51:33;25.98;;;19.25;;
47599;SDS011;33323;52.124;6.018;2022-08-18T00:54:17;23.92;;;18.40;;
47599;SDS011;33323;52.124;6.018;2022-08-18T00:56:50;24.17;;;18.17;;
47599;SDS011;33323;52.124;6.018;2022-08-18T01:02:29;21.15;;;17.70;;
47599;SDS011;33323;52.124;6.018;2022-08-18T01:05:15;24.27;;;17.70;;
47599;SDS011;33323;52.124;6.018;2022-08-18T01:07:49;25.90;;;18.65;;
47599;SDS011;33323;52.124;6.018;2022-08-18T01:10:18;18.02;;;14.55;;
47599;SDS011;33323;52.124;6.018;2022-08-18T01:12:48;20.23;;;16.27;;
47599;SDS011;33323;52.124;6.018;2022-08-18T01:15:19;21.67;;;16.90;;
47599;SDS011;33323;52.124;6.018;2022-08-18T01:17:58;24.75;;;16.77;;
47599;SDS011;33323;52.124;6.018;2022-08-18T01:23:49;19.83;;;14.27;;
47599;SDS011;33323;52.124;6.018;2022-08-18T01:26:19;21.85;;;14.68;;
47599;SDS011;33323;52.124;6.018;2022-08-18T01:28:48;23.92;;;14.55;;
47599;SDS011;33323;52.124;6.018;2022-08-18T01:31:30;22.35;;;14.50;;
47599;SDS011;33323;52.124;6.018;2022-08-18T01:34:04;21.98;;;13.70;;
47599;SDS011;33323;52.124;6.018;2022-08-18T01:36:34;23.88;;;13.82;;
47599;SDS011;33323;52.124;6.018;2022-08-18T01:39:04;21.98;;;14.45;;
47599;SDS011;33323;52.124;6.018;2022-08-18T01:41:35;19.02;;;13.65;;
47599;SDS011;33323;52.124;6.018;2022-08-18T01:44:03;18.13;;;13.38;;
47599;SDS011;33323;52.124;6.018;2022-08-18T01:46:32;20.23;;;14.73;;
47599;SDS011;33323;52.124;6.018;2022-08-18T01:49:00;21.42;;;14.38;;
47599;SDS011;33323;52.124;6.018;2022-08-18T01:51:29;18.90;;;14.02;;
47599;SDS011;33323;52.124;6.018;2022-08-18T01:54:06;18.33;;;13.32;;
47599;SDS011;33323;52.124;6.018;2022-08-18T01:56:36;18.88;;;13.57;;
47599;SDS011;33323;52.124;6.018;2022-08-18T01:59:03;18.83;;;14.95;;
47599;SDS011;33323;52.124;6.018;2022-08-18T02:01:31;20.60;;;14.85;;
47599;SDS011;33323;52.124;6.018;2022-08-18T02:04:17;18.02;;;14.15;;
47599;SDS011;33323;52.124;6.018;2022-08-18T02:07:02;22.45;;;15.15;;
47599;SDS011;33323;52.124;6.018;2022-08-18T02:09:33;18.90;;;13.95;;
47599;SDS011;33323;52.124;6.018;2022-08-18T02:12:02;21.70;;;14.98;;
47599;SDS011;33323;52.124;6.018;2022-08-18T02:14:31;22.45;;;14.20;;
47599;SDS011;33323;52.124;6.018;2022-08-18T02:17:01;22.55;;;14.35;;
47599;SDS011;33323;52.124;6.018;2022-08-18T02:19:35;19.90;;;14.90;;
47599;SDS011;33323;52.124;6.018;2022-08-18T02:22:09;17.50;;;13.35;;
47599;SDS011;33323;52.124;6.018;2022-08-18T02:24:41;21.00;;;13.68;;
47599;SDS011;33323;52.124;6.018;2022-08-18T02:27:09;21.42;;;14.43;;
47599;SDS011;33323;52.124;6.018;2022-08-18T02:29:37;16.40;;;12.98;;
47599;SDS011;33323;52.124;6.018;2022-08-18T02:32:04;20.75;;;13.98;;
47599;SDS011;33323;52.124;6.018;2022-08-18T02:34:32;27.77;;;14.60;;
47599;SDS011;33323;52.124;6.018;2022-08-18T02:37:01;19.45;;;12.88;;
47599;SDS011;33323;52.124;6.018;2022-08-18T02:39:28;20.73;;;13.90;;
47599;SDS011;33323;52.124;6.018;2022-08-18T02:41:55;17.70;;;13.40;;
47599;SDS011;33323;52.124;6.018;2022-08-18T02:44:22;22.35;;;12.43;;
47599;SDS011;33323;52.124;6.018;2022-08-18T02:46:53;21.98;;;13.77;;
47599;SDS011;33323;52.124;6.018;2022-08-18T02:49:20;24.65;;;14.02;;
47599;SDS011;33323;52.124;6.018;2022-08-18T02:51:48;20.13;;;13.57;;
47599;SDS011;33323;52.124;6.018;2022-08-18T02:54:17;22.02;;;14.25;;
47599;SDS011;33323;52.124;6.018;2022-08-18T02:56:46;19.85;;;13.90;;
47599;SDS011;33323;52.124;6.018;2022-08-18T02:59:15;22.05;;;15.93;;
47599;SDS011;33323;52.124;6.018;2022-08-18T03:01:47;27.05;;;15.10;;
47599;SDS011;33323;52.124;6.018;2022-08-18T03:04:18;21.77;;;13.65;;
47599;SDS011;33323;52.124;6.018;2022-08-18T03:06:55;20.67;;;14.50;;
47599;SDS011;33323;52.124;6.018;2022-08-18T03:09:25;22.98;;;13.18;;
47599;SDS011;33323;52.124;6.018;2022-08-18T03:11:53;25.85;;;14.80;;
47599;SDS011;33323;52.124;6.018;2022-08-18T03:14:20;22.63;;;14.35;;
47599;SDS011;33323;52.124;6.018;2022-08-18T03:16:47;24.15;;;14.73;;
47599;SDS011;33323;52.124;6.018;2022-08-18T03:19:20;20.92;;;15.60;;
47599;SDS011;33323;52.124;6.018;2022-08-18T03:21:55;22.08;;;14.50;;
47599;SDS011;33323;52.124;6.018;2022-08-18T03:24:26;20.38;;;14.05;;
47599;SDS011;33323;52.124;6.018;2022-08-18T03:26:54;25.80;;;15.13;;
47599;SDS011;33323;52.124;6.018;2022-08-18T03:29:22;21.73;;;16.02;;
47599;SDS011;33323;52.124;6.018;2022-08-18T03:31:57;25.05;;;15.23;;
47599;SDS011;33323;52.124;6.018;2022-08-18T03:34:24;23.23;;;15.73;;
47599;SDS011;33323;52.124;6.018;2022-08-18T03:36:51;23.30;;;15.20;;
47599;SDS011;33323;52.124;6.018;2022-08-18T03:39:19;20.83;;;14.85;;
47599;SDS011;33323;52.124;6.018;2022-08-18T03:41:49;25.00;;;14.90;;
47599;SDS011;33323;52.124;6.018;2022-08-18T03:44:24;27.17;;;15.85;;
47599;SDS011;33323;52.124;6.018;2022-08-18T03:46:53;21.90;;;15.75;;
47599;SDS011;33323;52.124;6.018;2022-08-18T03:49:20;24.58;;;15.30;;
47599;SDS011;33323;52.124;6.018;2022-08-18T03:51:47;21.40;;;16.73;;
47599;SDS011;33323;52.124;6.018;2022-08-18T03:54:16;22.50;;;14.50;;
47599;SDS011;33323;52.124;6.018;2022-08-18T03:56:44;21.45;;;14.52;;
47599;SDS011;33323;52.124;6.018;2022-08-18T03:59:19;24.92;;;15.75;;
47599;SDS011;33323;52.124;6.018;2022-08-18T04:01:49;20.30;;;14.55;;
47599;SDS011;33323;52.124;6.018;2022-08-18T04:04:20;21.40;;;16.02;;
47599;SDS011;33323;52.124;6.018;2022-08-18T04:06:53;24.83;;;16.35;;
47599;SDS011;33323;52.124;6.018;2022-08-18T04:09:24;22.05;;;15.23;;
47599;SDS011;33323;52.124;6.018;2022-08-18T04:11:55;20.90;;;15.25;;
47599;SDS011;33323;52.124;6.018;2022-08-18T04:14:24;26.55;;;14.95;;
47599;SDS011;33323;52.124;6.018;2022-08-18T04:17:00;27.33;;;15.57;;
47599;SDS011;33323;52.124;6.018;2022-08-18T04:19:27;23.92;;;15.13;;
47599;SDS011;33323;52.124;6.018;2022-08-18T04:21:56;24.23;;;17.10;;
47599;SDS011;33323;52.124;6.018;2022-08-18T04:24:23;22.25;;;16.27;;
47599;SDS011;33323;52.124;6.018;2022-08-18T04:26:56;29.00;;;16.15;;
47599;SDS011;33323;52.124;6.018;2022-08-18T04:29:26;19.42;;;14.10;;
47599;SDS011;33323;52.124;6.018;2022-08-18T04:31:53;21.30;;;15.27;;
47599;SDS011;33323;52.124;6.018;2022-08-18T04:34:21;24.15;;;15.02;;
47599;SDS011;33323;52.124;6.018;2022-08-18T04:36:49;25.00;;;17.00;;
47599;SDS011;33323;52.124;6.018;2022-08-18T04:39:19;24.02;;;15.45;;
47599;SDS011;33323;52.124;6.018;2022-08-18T04:41:48;22.85;;;14.07;;
47599;SDS011;33323;52.124;6.018;2022-08-18T04:44:15;21.92;;;15.27;;
47599;SDS011;33323;52.124;6.018;2022-08-18T04:46:45;20.58;;;14.68;;
47599;SDS011;33323;52.124;6.018;2022-08-18T04:49:19;22.65;;;14.50;;
47599;SDS011;33323;52.124;6.018;2022-08-18T04:51:51;23.73;;;14.18;;
47599;SDS011;33323;52.124;6.018;2022-08-18T04:54:57;23.52;;;14.02;;
47599;SDS011;33323;52.124;6.018;2022-08-18T04:57:26;25.00;;;14.35;;
47599;SDS011;33323;52.124;6.018;2022-08-18T04:59:58;21.10;;;13.95;;
47599;SDS011;33323;52.124;6.018;2022-08-18T05:02:25;20.55;;;13.63;;
47599;SDS011;33323;52.124;6.018;2022-08-18T05:04:52;18.42;;;14.23;;
47599;SDS011;33323;52.124;6.018;2022-08-18T05:07:19;23.30;;;14.93;;
47599;SDS011;33323;52.124;6.018;2022-08-18T05:09:50;18.80;;;13.95;;
47599;SDS011;33323;52.124;6.018;2022-08-18T05:12:19;19.67;;;14.43;;
47599;SDS011;33323;52.124;6.018;2022-08-18T05:14:51;19.95;;;15.15;;
47599;SDS011;33323;52.124;6.018;2022-08-18T05:17:19;24.83;;;16.02;;
47599;SDS011;33323;52.124;6.018;2022-08-18T05:19:46;25.63;;;15.15;;
47599;SDS011;33323;52.124;6.018;2022-08-18T05:22:15;21.25;;;15.10;;
47599;SDS011;33323;52.124;6.018;2022-08-18T05:24:54;26.60;;;15.90;;
47599;SDS011;33323;52.124;6.018;2022-08-18T05:27:21;27.73;;;16.88;;
47599;SDS011;33323;52.124;6.018;2022-08-18T05:29:47;28.88;;;18.40;;
47599;SDS011;33323;52.124;6.018;2022-08-18T05:32:17;23.52;;;16.33;;
47599;SDS011;33323;52.124;6.018;2022-08-18T05:35:10;26.40;;;17.05;;
47599;SDS011;33323;52.124;6.018;2022-08-18T05:38:24;21.33;;;14.95;;
47599;SDS011;33323;52.124;6.018;2022-08-18T05:43:38;32.83;;;16.92;;
47599;SDS011;33323;52.124;6.018;2022-08-18T05:46:17;24.85;;;16.23;;
47599;SDS011;33323;52.124;6.018;2022-08-18T05:48:51;24.27;;;16.98;;
47599;SDS011;33323;52.124;6.018;2022-08-18T05:51:22;23.15;;;15.20;;
47599;SDS011;33323;52.124;6.018;2022-08-18T05:53:59;25.45;;;15.07;;
47599;SDS011;33323;52.124;6.018;2022-08-18T05:56:47;22.17;;;14.75;;
47599;SDS011;33323;52.124;6.018;2022-08-18T05:59:25;22.42;;;15.40;;
47599;SDS011;33323;52.124;6.018;2022-08-18T06:05:08;19.05;;;13.10;;
47599;SDS011;33323;52.124;6.018;2022-08-18T06:07:56;20.17;;;14.63;;
47599;SDS011;33323;52.124;6.018;2022-08-18T06:10:40;20.75;;;13.52;;
47599;SDS011;33323;52.124;6.018;2022-08-18T06:13:12;21.70;;;15.45;;
47599;SDS011;33323;52.124;6.018;2022-08-18T06:15:58;26.30;;;14.35;;
47599;SDS011;33323;52.124;6.018;2022-08-18T06:21:31;17.33;;;14.20;;
47599;SDS011;33323;52.124;6.018;2022-08-18T06:24:21;20.92;;;14.40;;
47599;SDS011;33323;52.124;6.018;2022-08-18T06:27:59;18.38;;;11.88;;
47599;SDS011;33323;52.124;6.018;2022-08-18T06:33:13;23.00;;;13.30;;
47599;SDS011;33323;52.124;6.018;2022-08-18T06:36:06;16.23;;;11.85;;
47599;SDS011;33323;52.124;6.018;2022-08-18T06:39:01;18.38;;;12.43;;
47599;SDS011;33323;52.124;6.018;2022-08-18T06:42:04;17.42;;;11.18;;
47599;SDS011;33323;52.124;6.018;2022-08-18T06:53:08;14.65;;;10.48;;
47599;SDS011;33323;52.124;6.018;2022-08-18T06:55:52;16.67;;;11.57;;
47599;SDS011;33323;52.124;6.018;2022-08-18T06:58:25;18.20;;;11.02;;
47599;SDS011;33323;52.124;6.018;2022-08-18T07:01:00;14.65;;;10.55;;
47599;SDS011;33323;52.124;6.018;2022-08-18T07:06:03;18.15;;;10.55;;
47599;SDS011;33323;52.124;6.018;2022-08-18T07:08:38;17.33;;;10.48;;
47599;SDS011;33323;52.124;6.018;2022-08-18T07:11:19;14.75;;;10.50;;
47599;SDS011;33323;52.124;6.018;2022-08-18T07:13:53;11.80;;;9.55;;
47599;SDS011;33323;52.124;6.018;2022-08-18T07:16:41;14.50;;;11.65;;
47599;SDS011;33323;52.124;6.018;2022-08-18T07:19:29;14.27;;;10.20;;
47599;SDS011;33323;52.124;6.018;2022-08-18T07:22:06;13.80;;;9.80;;
47599;SDS011;33323;52.124;6.018;2022-08-18T07:24:41;13.73;;;10.23;;
47599;SDS011;33323;52.124;6.018;2022-08-18T07:27:20;17.20;;;10.85;;
47599;SDS011;33323;52.124;6.018;2022-08-18T07:32:47;13.13;;;8.80;;
47599;SDS011;33323;52.124;6.018;2022-08-18T07:35:37;12.32;;;8.82;;
47599;SDS011;33323;52.124;6.018;2022-08-18T07:41:11;11.88;;;8.40;;
47599;SDS011;33323;52.124;6.018;2022-08-18T07:49:15;9.55;;;7.50;;
47599;SDS011;33323;52.124;6.018;2022-08-18T07:51:49;10.13;;;7.70;;
47599;SDS011;33323;52.124;6.018;2022-08-18T07:54:33;11.88;;;8.23;;
47599;SDS011;33323;52.124;6.018;2022-08-18T07:57:30;17.70;;;7.60;;
47599;SDS011;33323;52.124;6.018;2022-08-18T08:00:22;11.40;;;9.10;;
47599;SDS011;33323;52.124;6.018;2022-08-18T08:06:53;16.33;;;8.10;;
47599;SDS011;33323;52.124;6.018;2022-08-18T08:12:47;10.57;;;6.47;;
47599;SDS011;33323;52.124;6.018;2022-08-18T08:24:17;6.57;;;4.00;;
47599;SDS011;33323;52.124;6.018;2022-08-18T08:35:56;11.52;;;4.10;;
47599;SDS011;33323;52.124;6.018;2022-08-18T08:38:41;4.82;;;3.75;;
47599;SDS011;33323;52.124;6.018;2022-08-18T08:44:02;5.53;;;3.85;;
47599;SDS011;33323;52.124;6.018;2022-08-18T08:46:48;8.05;;;3.92;;
47599;SDS011;33323;52.124;6.018;2022-08-18T08:49:31;6.65;;;3.72;;
47599;SDS011;33323;52.124;6.018;2022-08-18T08:52:26;9.05;;;3.20;;
47599;SDS011;33323;52.124;6.018;2022-08-18T08:55:13;7.00;;;3.90;;
47599;SDS011;33323;52.124;6.018;2022-08-18T08:57:54;6.95;;;3.47;;
47599;SDS011;33323;52.124;6.018;2022-08-18T09:00:54;4.65;;;3.10;;
47599;SDS011;33323;52.124;6.018;2022-08-18T09:03:25;4.80;;;2.90;;
47599;SDS011;33323;52.124;6.018;2022-08-18T09:08:52;9.70;;;5.10;;
47599;SDS011;33323;52.124;6.018;2022-08-18T09:21:16;5.57;;;3.00;;
47599;SDS011;33323;52.124;6.018;2022-08-18T09:24:26;5.72;;;2.85;;
47599;SDS011;33323;52.124;6.018;2022-08-18T09:37:45;5.10;;;2.75;;
47599;SDS011;33323;52.124;6.018;2022-08-18T09:40:52;6.35;;;3.17;;
47599;SDS011;33323;52.124;6.018;2022-08-18T09:46:52;5.30;;;2.38;;
47599;SDS011;33323;52.124;6.018;2022-08-18T09:57:32;5.97;;;3.20;;
47599;SDS011;33323;52.124;6.018;2022-08-18T10:10:56;5.25;;;2.60;;
47599;SDS011;33323;52.124;6.018;2022-08-18T10:13:45;3.72;;;2.60;;
47599;SDS011;33323;52.124;6.018;2022-08-18T10:19:40;6.05;;;3.25;;
47599;SDS011;33323;52.124;6.018;2022-08-18T10:22:35;3.63;;;2.00;;
47599;SDS011;33323;52.124;6.018;2022-08-18T10:25:09;7.28;;;3.15;;
47599;SDS011;33323;52.124;6.018;2022-08-18T10:27:51;5.80;;;2.85;;
47599;SDS011;33323;52.124;6.018;2022-08-18T10:36:54;5.97;;;3.33;;
47599;SDS011;33323;52.124;6.018;2022-08-18T10:42:15;4.38;;;3.05;;
47599;SDS011;33323;52.124;6.018;2022-08-18T10:45:30;6.55;;;3.53;;
47599;SDS011;33323;52.124;6.018;2022-08-18T10:59:43;4.28;;;3.17;;
47599;SDS011;33323;52.124;6.018;2022-08-18T11:02:58;4.00;;;2.45;;
47599;SDS011;33323;52.124;6.018;2022-08-18T11:06:05;5.45;;;2.13;;
47599;SDS011;33323;52.124;6.018;2022-08-18T11:11:21;3.17;;;2.72;;
47599;SDS011;33323;52.124;6.018;2022-08-18T11:14:14;5.55;;;3.53;;
47599;SDS011;33323;52.124;6.018;2022-08-18T11:19:26;4.45;;;3.03;;
47599;SDS011;33323;52.124;6.018;2022-08-18T11:21:55;3.55;;;2.30;;
47599;SDS011;33323;52.124;6.018;2022-08-18T11:24:23;5.78;;;2.83;;
47599;SDS011;33323;52.124;6.018;2022-08-18T11:26:58;4.93;;;2.40;;
47599;SDS011;33323;52.124;6.018;2022-08-18T11:29:35;2.78;;;2.10;;
47599;SDS011;33323;52.124;6.018;2022-08-18T11:32:07;4.78;;;2.60;;
47599;SDS011;33323;52.124;6.018;2022-08-18T11:37:26;7.13;;;3.08;;
47599;SDS011;33323;52.124;6.018;2022-08-18T11:40:25;5.03;;;2.72;;
47599;SDS011;33323;52.124;6.018;2022-08-18T11:43:37;4.88;;;2.40;;
47599;SDS011;33323;52.124;6.018;2022-08-18T11:46:22;4.47;;;2.30;;
47599;SDS011;33323;52.124;6.018;2022-08-18T11:48:58;6.43;;;2.67;;
47599;SDS011;33323;52.124;6.018;2022-08-18T11:51:30;4.05;;;2.60;;
47599;SDS011;33323;52.124;6.018;2022-08-18T11:54:01;8.35;;;2.58;;
47599;SDS011;33323;52.124;6.018;2022-08-18T11:56:38;5.28;;;2.30;;
47599;SDS011;33323;52.124;6.018;2022-08-18T11:59:06;3.90;;;2.20;;
47599;SDS011;33323;52.124;6.018;2022-08-18T12:02:23;7.88;;;3.75;;
47599;SDS011;33323;52.124;6.018;2022-08-18T12:04:52;8.77;;;2.45;;
47599;SDS011;33323;52.124;6.018;2022-08-18T12:07:34;4.43;;;2.45;;
47599;SDS011;33323;52.124;6.018;2022-08-18T12:10:22;10.50;;;2.63;;
47599;SDS011;33323;52.124;6.018;2022-08-18T12:12:54;5.53;;;3.33;;
47599;SDS011;33323;52.124;6.018;2022-08-18T12:15:30;3.45;;;2.53;;
47599;SDS011;33323;52.124;6.018;2022-08-18T12:18:15;3.92;;;2.83;;
47599;SDS011;33323;52.124;6.018;2022-08-18T12:20:54;6.00;;;2.90;;
47599;SDS011;33323;52.124;6.018;2022-08-18T12:23:24;3.40;;;2.90;;
47599;SDS011;33323;52.124;6.018;2022-08-18T12:25:51;2.92;;;2.63;;
47599;SDS011;33323;52.124;6.018;2022-08-18T12:28:19;5.45;;;2.72;;
47599;SDS011;33323;52.124;6.018;2022-08-18T12:31:06;7.10;;;2.70;;
47599;SDS011;33323;52.124;6.018;2022-08-18T12:33:42;10.20;;;2.80;;
47599;SDS011;33323;52.124;6.018;2022-08-18T12:36:26;5.93;;;2.78;;
47599;SDS011;33323;52.124;6.018;2022-08-18T12:38:55;6.32;;;3.20;;
47599;SDS011;33323;52.124;6.018;2022-08-18T12:41:22;8.95;;;3.40;;
47599;SDS011;33323;52.124;6.018;2022-08-18T12:43:49;5.85;;;3.10;;
47599;SDS011;33323;52.124;6.018;2022-08-18T12:46:24;4.63;;;2.58;;
47599;SDS011;33323;52.124;6.018;2022-08-18T12:48:52;4.90;;;3.22;;
47599;SDS011;33323;52.124;6.018;2022-08-18T12:51:19;5.65;;;2.63;;
47599;SDS011;33323;52.124;6.018;2022-08-18T12:54:06;3.50;;;2.83;;
47599;SDS011;33323;52.124;6.018;2022-08-18T12:56:35;3.17;;;2.50;;
47599;SDS011;33323;52.124;6.018;2022-08-18T12:59:04;4.72;;;2.53;;
47599;SDS011;33323;52.124;6.018;2022-08-18T13:01:33;4.18;;;2.30;;
47599;SDS011;33323;52.124;6.018;2022-08-18T13:04:05;6.07;;;2.50;;
47599;SDS011;33323;52.124;6.018;2022-08-18T13:06:40;3.17;;;1.92;;
47599;SDS011;33323;52.124;6.018;2022-08-18T13:09:27;4.93;;;2.42;;
47599;SDS011;33323;52.124;6.018;2022-08-18T13:12:20;4.78;;;2.58;;
47599;SDS011;33323;52.124;6.018;2022-08-18T13:14:49;2.08;;;1.88;;
47599;SDS011;33323;52.124;6.018;2022-08-18T13:17:19;3.92;;;1.83;;
47599;SDS011;33323;52.124;6.018;2022-08-18T13:19:58;6.60;;;2.35;;
47599;SDS011;33323;52.124;6.018;2022-08-18T13:22:46;7.70;;;2.70;;
47599;SDS011;33323;52.124;6.018;2022-08-18T13:25:15;4.53;;;2.58;;
47599;SDS011;33323;52.124;6.018;2022-08-18T13:27:58;5.07;;;2.10;;
47599;SDS011;33323;52.124;6.018;2022-08-18T13:33:20;5.50;;;2.08;;
47599;SDS011;33323;52.124;6.018;2022-08-18T13:36:07;3.90;;;3.20;;
47599;SDS011;33323;52.124;6.018;2022-08-18T13:38:34;3.47;;;2.28;;
47599;SDS011;33323;52.124;6.018;2022-08-18T13:41:02;4.13;;;1.80;;
47599;SDS011;33323;52.124;6.018;2022-08-18T13:43:33;4.00;;;2.05;;
47599;SDS011;33323;52.124;6.018;2022-08-18T13:46:04;7.53;;;2.10;;
47599;SDS011;33323;52.124;6.018;2022-08-18T13:48:35;3.88;;;2.08;;
47599;SDS011;33323;52.124;6.018;2022-08-18T13:51:03;5.93;;;2.60;;
47599;SDS011;33323;52.124;6.018;2022-08-18T13:53:34;3.53;;;2.78;;
47599;SDS011;33323;52.124;6.018;2022-08-18T13:56:16;4.53;;;3.40;;
47599;SDS011;33323;52.124;6.018;2022-08-18T13:58:45;7.88;;;3.13;;
47599;SDS011;33323;52.124;6.018;2022-08-18T14:01:19;5.78;;;2.90;;
47599;SDS011;33323;52.124;6.018;2022-08-18T14:04:06;4.10;;;2.55;;
47599;SDS011;33323;52.124;6.018;2022-08-18T14:06:40;4.50;;;2.80;;
47599;SDS011;33323;52.124;6.018;2022-08-18T14:09:16;4.45;;;2.33;;
47599;SDS011;33323;52.124;6.018;2022-08-18T14:12:16;7.78;;;3.25;;
47599;SDS011;33323;52.124;6.018;2022-08-18T14:14:52;5.20;;;2.90;;
47599;SDS011;33323;52.124;6.018;2022-08-18T14:17:21;4.38;;;2.70;;
47599;SDS011;33323;52.124;6.018;2022-08-18T14:19:50;5.70;;;2.75;;
47599;SDS011;33323;52.124;6.018;2022-08-18T14:22:46;4.50;;;2.92;;
47599;SDS011;33323;52.124;6.018;2022-08-18T14:25:34;6.50;;;3.10;;
47599;SDS011;33323;52.124;6.018;2022-08-18T14:28:21;7.13;;;3.50;;
47599;SDS011;33323;52.124;6.018;2022-08-18T14:30:50;5.85;;;2.97;;
47599;SDS011;33323;52.124;6.018;2022-08-18T14:33:21;10.13;;;3.58;;
47599;SDS011;33323;52.124;6.018;2022-08-18T14:36:11;9.70;;;3.67;;
47599;SDS011;33323;52.124;6.018;2022-08-18T14:38:39;5.13;;;2.70;;
47599;SDS011;33323;52.124;6.018;2022-08-18T14:41:08;5.65;;;3.78;;
47599;SDS011;33323;52.124;6.018;2022-08-18T14:43:38;4.80;;;2.85;;
47599;SDS011;33323;52.124;6.018;2022-08-18T14:46:25;6.65;;;3.20;;
47599;SDS011;33323;52.124;6.018;2022-08-18T14:48:57;5.20;;;3.03;;
47599;SDS011;33323;52.124;6.018;2022-08-18T14:51:30;6.00;;;3.10;;
47599;SDS011;33323;52.124;6.018;2022-08-18T14:53:59;4.43;;;2.88;;
47599;SDS011;33323;52.124;6.018;2022-08-18T14:56:28;7.20;;;3.42;;
47599;SDS011;33323;52.124;6.018;2022-08-18T14:59:04;4.40;;;2.78;;
47599;SDS011;33323;52.124;6.018;2022-08-18T15:01:34;6.22;;;3.03;;
47599;SDS011;33323;52.124;6.018;2022-08-18T15:04:08;10.10;;;3.10;;
47599;SDS011;33323;52.124;6.018;2022-08-18T15:06:45;6.07;;;3.35;;
47599;SDS011;33323;52.124;6.018;2022-08-18T15:09:23;3.85;;;3.45;;
47599;SDS011;33323;52.124;6.018;2022-08-18T15:11:52;5.35;;;3.38;;
47599;SDS011;33323;52.124;6.018;2022-08-18T15:14:22;4.38;;;3.30;;
47599;SDS011;33323;52.124;6.018;2022-08-18T15:16:58;6.22;;;3.33;;
47599;SDS011;33323;52.124;6.018;2022-08-18T15:19:38;6.05;;;3.03;;
47599;SDS011;33323;52.124;6.018;2022-08-18T15:22:26;4.50;;;3.25;;
47599;SDS011;33323;52.124;6.018;2022-08-18T15:25:19;5.28;;;2.65;;
47599;SDS011;33323;52.124;6.018;2022-08-18T15:28:20;5.03;;;2.92;;
47599;SDS011;33323;52.124;6.018;2022-08-18T15:30:50;3.63;;;3.00;;
47599;SDS011;33323;52.124;6.018;2022-08-18T15:33:38;6.40;;;3.58;;
47599;SDS011;33323;52.124;6.018;2022-08-18T15:36:07;6.95;;;3.47;;
47599;SDS011;33323;52.124;6.018;2022-08-18T15:38:35;7.13;;;3.55;;
47599;SDS011;33323;52.124;6.018;2022-08-18T15:41:03;6.25;;;3.17;;
47599;SDS011;33323;52.124;6.018;2022-08-18T15:43:34;4.97;;;3.40;;
47599;SDS011;33323;52.124;6.018;2022-08-18T15:46:12;4.88;;;3.08;;
47599;SDS011;33323;52.124;6.018;2022-08-18T15:48:42;3.97;;;2.80;;
47599;SDS011;33323;52.124;6.018;2022-08-18T15:51:09;4.20;;;3.08;;
47599;SDS011;33323;52.124;6.018;2022-08-18T15:53:38;2.97;;;2.60;;
47599;SDS011;33323;52.124;6.018;2022-08-18T15:56:11;5.30;;;3.22;;
47599;SDS011;33323;52.124;6.018;2022-08-18T15:58:46;3.72;;;2.38;;
47599;SDS011;33323;52.124;6.018;2022-08-18T16:01:15;5.57;;;2.42;;
47599;SDS011;33323;52.124;6.018;2022-08-18T16:03:57;4.45;;;2.30;;
47599;SDS011;33323;52.124;6.018;2022-08-18T16:06:26;3.45;;;2.35;;
47599;SDS011;33323;52.124;6.018;2022-08-18T16:08:58;2.70;;;1.90;;
47599;SDS011;33323;52.124;6.018;2022-08-18T16:11:26;2.85;;;1.77;;
47599;SDS011;33323;52.124;6.018;2022-08-18T16:13:55;3.13;;;1.80;;
47599;SDS011;33323;52.124;6.018;2022-08-18T16:16:24;3.63;;;1.80;;
47599;SDS011;33323;52.124;6.018;2022-08-18T16:19:02;4.07;;;1.60;;
47599;SDS011;33323;52.124;6.018;2022-08-18T16:21:32;2.97;;;1.48;;
47599;SDS011;33323;52.124;6.018;2022-08-18T16:24:03;2.65;;;1.70;;
47599;SDS011;33323;52.124;6.018;2022-08-18T16:26:31;3.55;;;2.33;;
47599;SDS011;33323;52.124;6.018;2022-08-18T16:28:59;2.97;;;2.30;;
47599;SDS011;33323;52.124;6.018;2022-08-18T16:31:27;2.90;;;1.75;;
47599;SDS011;33323;52.124;6.018;2022-08-18T16:33:55;1.95;;;1.70;;
47599;SDS011;33323;52.124;6.018;2022-08-18T16:36:23;2.75;;;1.52;;
47599;SDS011;33323;52.124;6.018;2022-08-18T16:38:52;3.65;;;2.00;;
47599;SDS011;33323;52.124;6.018;2022-08-18T16:41:24;3.60;;;1.60;;
47599;SDS011;33323;52.124;6.018;2022-08-18T16:43:51;2.72;;;1.77;;
47599;SDS011;33323;52.124;6.018;2022-08-18T16:46:20;4.63;;;1.45;;
47599;SDS011;33323;52.124;6.018;2022-08-18T16:48:52;7.63;;;1.70;;
47599;SDS011;33323;52.124;6.018;2022-08-18T16:51:21;4.40;;;1.67;;
47599;SDS011;33323;52.124;6.018;2022-08-18T16:53:50;2.33;;;1.63;;
47599;SDS011;33323;52.124;6.018;2022-08-18T16:56:22;2.67;;;1.77;;
47599;SDS011;33323;52.124;6.018;2022-08-18T16:58:53;2.87;;;1.70;;
47599;SDS011;33323;52.124;6.018;2022-08-18T17:01:38;3.25;;;1.42;;
47599;SDS011;33323;52.124;6.018;2022-08-18T17:04:26;4.03;;;1.30;;
47599;SDS011;33323;52.124;6.018;2022-08-18T17:06:59;4.40;;;1.50;;
47599;SDS011;33323;52.124;6.018;2022-08-18T17:09:28;3.88;;;1.40;;
47599;SDS011;33323;52.124;6.018;2022-08-18T17:11:55;4.25;;;1.85;;
47599;SDS011;33323;52.124;6.018;2022-08-18T17:14:23;2.95;;;1.80;;
47599;SDS011;33323;52.124;6.018;2022-08-18T17:16:55;2.65;;;1.70;;
47599;SDS011;33323;52.124;6.018;2022-08-18T17:19:24;1.77;;;1.60;;
47599;SDS011;33323;52.124;6.018;2022-08-18T17:21:55;1.83;;;1.40;;
47599;SDS011;33323;52.124;6.018;2022-08-18T17:24:22;4.80;;;1.70;;
47599;SDS011;33323;52.124;6.018;2022-08-18T17:32:20;2.00;;;1.15;;
47599;SDS011;33323;52.124;6.018;2022-08-18T17:34:58;2.38;;;1.10;;
47599;SDS011;33323;52.124;6.018;2022-08-18T17:37:30;1.67;;;1.38;;
47599;SDS011;33323;52.124;6.018;2022-08-18T17:40:02;2.40;;;1.20;;
47599;SDS011;33323;52.124;6.018;2022-08-18T17:42:42;2.33;;;1.10;;
47599;SDS011;33323;52.124;6.018;2022-08-18T17:45:09;1.10;;;0.90;;
47599;SDS011;33323;52.124;6.018;2022-08-18T17:50:37;4.50;;;1.30;;
47599;SDS011;33323;52.124;6.018;2022-08-18T17:53:46;2.55;;;1.83;;
47599;SDS011;33323;52.124;6.018;2022-08-18T17:56:20;2.35;;;1.38;;
47599;SDS011;33323;52.124;6.018;2022-08-18T17:59:06;2.00;;;1.33;;
47599;SDS011;33323;52.124;6.018;2022-08-18T18:02:06;2.00;;;1.52;;